Time;durP1;ratioP1;P1;durP2;ratioP2;P2;SDS_P1;SDS_P2;PMS_P1;PMS_P2;Temp;Humidity;BMP_temperature;BMP_pressure;BME280_temperature;BME280_humidity;BME280_pressure;Samples;Min_cycle;Max_cycle;Signal;HPM_P1;HPM_P2
2022/12/25 00:02:06;;;;;;;11.60;4.87;;;9.40;99.90;;;;;;5044557;28;20424;-38
2022/12/25 00:04:32;;;;;;;9.90;3.93;;;9.40;99.90;;;;;;5049229;28;20615;-37
2022/12/25 00:06:58;;;;;;;9.90;4.73;;;9.40;99.90;;;;;;5049647;28;20264;-37
2022/12/25 00:09:24;;;;;;;7.60;4.27;;;9.50;99.90;;;;;;5049683;28;20192;-39
2022/12/25 00:11:50;;;;;;;9.33;4.30;;;9.50;99.90;;;;;;5046436;28;20520;-40
2022/12/25 00:14:15;;;;;;;7.77;3.90;;;9.50;99.90;;;;;;5049156;28;20507;-37
2022/12/25 00:16:41;;;;;;;8.77;4.10;;;9.50;99.90;;;;;;5049507;28;20656;-40
2022/12/25 00:19:07;;;;;;;11.77;5.30;;;9.40;99.90;;;;;;5050130;28;20182;-38
2022/12/25 00:21:33;;;;;;;8.00;4.97;;;9.50;99.90;;;;;;5049351;28;20271;-40
2022/12/25 00:23:59;;;;;;;9.27;4.40;;;9.70;99.90;;;;;;5047957;28;20206;-41
2022/12/25 00:26:26;;;;;;;9.40;4.73;;;9.60;99.90;;;;;;5048529;28;20174;-41
2022/12/25 00:28:55;;;;;;;6.90;4.10;;;9.60;99.90;;;;;;5049360;28;20415;-42
2022/12/25 00:31:22;;;;;;;10.90;5.03;;;9.60;99.90;;;;;;5048348;28;20523;-34
2022/12/25 00:33:49;;;;;;;13.60;4.73;;;9.60;99.90;;;;;;5048707;28;20491;-43
2022/12/25 00:36:17;;;;;;;9.67;4.63;;;9.60;99.90;;;;;;5049580;28;20495;-39
2022/12/25 00:38:43;;;;;;;9.43;4.67;;;9.80;99.90;;;;;;5049207;28;20428;-40
2022/12/25 00:42:17;;;;;;;9.80;4.40;;;9.70;99.90;;;;;;5049006;28;20491;-41
2022/12/25 00:44:04;;;;;;;7.50;4.67;;;9.70;99.90;;;;;;5048672;28;20411;-40
2022/12/25 00:46:30;;;;;;;8.43;5.03;;;9.70;99.90;;;;;;5048248;28;20404;-39
2022/12/25 00:48:59;;;;;;;8.43;4.37;;;9.70;99.90;;;;;;5049197;28;20900;-39
2022/12/25 00:51:24;;;;;;;7.70;4.43;;;9.70;99.90;;;;;;5049005;28;20276;-38
2022/12/25 00:53:50;;;;;;;7.03;4.10;;;9.70;99.90;;;;;;5048157;28;20957;-37
2022/12/25 00:56:17;;;;;;;12.60;4.50;;;9.70;99.90;;;;;;5048753;28;20436;-41
2022/12/25 00:58:42;;;;;;;7.20;4.40;;;9.50;99.90;;;;;;5048984;28;20182;-41
2022/12/25 01:01:10;;;;;;;9.33;4.07;;;9.80;99.90;;;;;;5049130;28;20539;-39
2022/12/25 01:03:36;;;;;;;9.50;3.40;;;9.70;99.90;;;;;;5047859;28;20177;-39
2022/12/25 01:06:06;;;;;;;12.50;4.70;;;9.70;99.90;;;;;;5048934;28;20416;-36
2022/12/25 01:08:37;;;;;;;7.07;3.47;;;9.80;99.90;;;;;;5048242;28;20580;-37
2022/12/25 01:11:07;;;;;;;8.30;3.33;;;9.70;99.90;;;;;;5048982;28;20503;-37
2022/12/25 01:13:35;;;;;;;6.20;4.00;;;9.80;99.90;;;;;;5047754;28;20416;-40
2022/12/25 01:16:09;;;;;;;10.17;3.67;;;9.80;99.90;;;;;;5048890;28;20416;-41
2022/12/25 01:18:35;;;;;;;6.07;3.57;;;9.80;99.90;;;;;;5048282;28;20586;-40
2022/12/25 01:21:08;;;;;;;7.10;3.40;;;9.80;99.90;;;;;;5047131;28;20551;-39
2022/12/25 01:23:35;;;;;;;6.07;3.20;;;9.80;99.90;;;;;;5048248;28;20409;-39
2022/12/25 01:26:08;;;;;;;3.97;3.10;;;9.80;99.90;;;;;;5047122;28;20412;-39
2022/12/25 01:28:35;;;;;;;8.03;3.40;;;9.80;99.90;;;;;;5048510;28;20797;-40
2022/12/25 01:31:01;;;;;;;5.57;3.00;;;9.80;99.90;;;;;;5048236;28;20503;-40
2022/12/25 01:33:27;;;;;;;6.27;3.00;;;9.80;99.90;;;;;;5047558;28;20416;-37
2022/12/25 01:35:52;;;;;;;5.90;3.30;;;9.80;99.90;;;;;;5048189;28;20771;-39
2022/12/25 01:38:18;;;;;;;10.07;3.63;;;9.80;99.90;;;;;;5048819;28;20186;-40
2022/12/25 01:40:44;;;;;;;11.67;4.63;;;9.80;99.90;;;;;;5046871;28;20300;-37
2022/12/25 01:43:27;;;;;;;6.07;3.60;;;9.80;99.90;;;;;;5047858;28;20209;-43
2022/12/25 01:45:53;;;;;;;3.80;2.67;;;9.90;99.90;;;;;;5048323;28;20185;-39
2022/12/25 01:48:23;;;;;;;6.77;3.20;;;10.10;99.90;;;;;;5048095;28;20412;-38
2022/12/25 01:50:54;;;;;;;5.50;3.33;;;9.90;99.90;;;;;;5048097;28;20268;-41
2022/12/25 01:53:21;;;;;;;3.70;2.40;;;9.90;99.90;;;;;;5047608;28;20444;-41
2022/12/25 01:55:50;;;;;;;5.20;2.83;;;9.90;99.90;;;;;;5048089;28;20494;-39
2022/12/25 01:58:16;;;;;;;7.07;2.60;;;9.90;99.90;;;;;;5047574;28;20755;-40
2022/12/25 02:00:42;;;;;;;4.13;2.20;;;9.90;99.90;;;;;;5048093;28;20488;-37
2022/12/25 02:03:08;;;;;;;8.00;3.30;;;9.90;99.90;;;;;;5046283;28;20404;-38
2022/12/25 02:05:34;;;;;;;4.13;2.40;;;9.90;99.90;;;;;;5046135;28;20841;-36
2022/12/25 02:08:07;;;;;;;5.20;2.50;;;10.00;99.90;;;;;;5046726;28;20189;-39
2022/12/25 02:10:33;;;;;;;3.50;2.17;;;10.00;99.90;;;;;;5047676;28;20495;-39
2022/12/25 02:12:59;;;;;;;5.03;2.70;;;10.00;99.90;;;;;;5047280;28;20540;-39
2022/12/25 02:15:39;;;;;;;3.83;2.30;;;10.00;99.90;;;;;;5047739;28;20185;-39
2022/12/25 02:18:11;;;;;;;4.30;2.43;;;10.00;99.90;;;;;;5048088;28;20408;-40
2022/12/25 02:20:50;;;;;;;5.93;2.53;;;10.00;99.90;;;;;;5047521;28;20762;-40
2022/12/25 02:23:43;;;;;;;4.90;3.10;;;9.90;99.90;;;;;;5047792;28;20768;-38
2022/12/25 02:26:11;;;;;;;5.90;2.60;;;10.00;99.90;;;;;;5046482;28;20533;-41
2022/12/25 02:29:01;;;;;;;4.70;2.57;;;10.00;99.90;;;;;;5047806;28;20635;-38
2022/12/25 02:31:33;;;;;;;5.80;2.90;;;10.00;99.90;;;;;;5047798;28;20491;-41
2022/12/25 02:34:14;;;;;;;6.30;2.73;;;10.00;99.90;;;;;;5046932;28;20435;-39
2022/12/25 02:36:47;;;;;;;7.60;2.60;;;10.00;99.90;;;;;;5047754;28;20412;-41
2022/12/25 02:42:19;;;;;;;5.83;2.50;;;10.10;99.90;;;;;;5047351;28;20420;-40
2022/12/25 03:07:14;;;;;;;7.50;2.40;;;10.20;99.90;;;;;;5046786;28;20424;-38
2022/12/25 03:12:41;;;;;;;4.40;2.43;;;10.20;99.90;;;;;;5050409;28;20431;-39
2022/12/25 03:17:56;;;;;;;4.53;2.67;;;10.20;99.90;;;;;;5050650;28;20759;-40
2022/12/25 03:28:36;;;;;;;3.40;2.37;;;10.20;99.90;;;;;;5050508;28;20412;-38
2022/12/25 03:31:17;;;;;;;3.13;2.50;;;10.20;99.90;;;;;;5050756;28;20959;-40
2022/12/25 03:35:21;;;;;;;4.80;2.67;;;10.20;99.90;;;;;;5050028;28;20189;-37
2022/12/25 04:38:29;;;;;;;4.17;2.27;;;10.30;99.90;;;;;;5029662;28;20449;-39
2022/12/25 04:40:55;;;;;;;3.43;2.00;;;10.30;99.90;;;;;;5029130;28;20900;-38
2022/12/25 04:43:23;;;;;;;4.00;2.50;;;10.30;99.90;;;;;;5028904;28;20229;-37
2022/12/25 04:45:57;;;;;;;6.13;2.53;;;10.20;99.90;;;;;;5029018;28;20244;-39
2022/12/25 04:48:24;;;;;;;5.07;2.47;;;10.20;99.90;;;;;;5029078;28;20405;-37
2022/12/25 04:50:50;;;;;;;3.00;2.60;;;10.20;99.90;;;;;;5029597;28;20563;-41
2022/12/25 04:53:16;;;;;;;8.00;2.40;;;10.20;99.90;;;;;;5028486;28;20512;-37
2022/12/25 04:55:42;;;;;;;7.87;2.47;;;10.20;99.90;;;;;;5029074;28;20198;-40
2022/12/25 04:58:08;;;;;;;4.37;2.50;;;10.20;99.90;;;;;;5027741;28;20948;-40
2022/12/25 05:00:34;;;;;;;4.53;2.60;;;10.20;99.90;;;;;;5028606;28;20202;-37
2022/12/25 05:02:59;;;;;;;4.70;2.77;;;10.20;99.90;;;;;;5028665;28;20413;-40
2022/12/25 05:05:25;;;;;;;3.40;2.40;;;10.30;99.90;;;;;;5028539;28;20486;-39
2022/12/25 05:07:51;;;;;;;3.10;2.40;;;10.20;99.90;;;;;;5028868;28;20266;-38
2022/12/25 05:10:16;;;;;;;3.97;2.60;;;10.20;99.90;;;;;;5028913;28;20201;-39
2022/12/25 05:12:43;;;;;;;6.00;2.70;;;10.10;99.90;;;;;;5041694;28;20670;-38
2022/12/25 05:15:09;;;;;;;5.37;2.80;;;10.20;99.90;;;;;;5048221;28;20521;-38
2022/12/25 05:17:36;;;;;;;6.77;3.43;;;10.20;99.90;;;;;;5048792;28;20186;-38
2022/12/25 05:20:03;;;;;;;6.53;3.10;;;10.10;99.90;;;;;;5049278;28;20416;-39
2022/12/25 05:22:28;;;;;;;5.33;2.33;;;10.20;99.90;;;;;;5048401;28;20821;-40
2022/12/25 05:24:54;;;;;;;7.37;2.80;;;10.10;99.90;;;;;;5047560;28;20413;-40
2022/12/25 05:27:20;;;;;;;5.70;2.70;;;10.10;99.90;;;;;;5048327;28;20170;-38
2022/12/25 05:29:45;;;;;;;5.77;2.77;;;10.10;99.90;;;;;;5048428;28;20186;-40
2022/12/25 05:32:11;;;;;;;5.03;2.53;;;10.10;99.90;;;;;;5048357;28;20182;-41
2022/12/25 05:34:37;;;;;;;5.70;3.10;;;10.10;99.90;;;;;;5047487;28;20212;-38
2022/12/25 05:37:02;;;;;;;7.27;3.00;;;10.10;99.90;;;;;;5048261;28;20235;-38
2022/12/25 05:39:28;;;;;;;4.53;2.73;;;10.00;99.90;;;;;;5048383;28;20213;-36
2022/12/25 05:41:54;;;;;;;4.23;3.10;;;10.00;99.90;;;;;;5048215;28;20208;-40
2022/12/25 05:44:20;;;;;;;4.50;2.07;;;10.00;99.90;;;;;;5047589;28;20189;-40
2022/12/25 05:46:45;;;;;;;7.43;2.37;;;10.00;99.90;;;;;;5048121;28;20955;-38
2022/12/25 05:49:11;;;;;;;6.03;3.27;;;10.00;99.90;;;;;;5048724;28;20653;-41
2022/12/25 05:51:37;;;;;;;4.00;2.70;;;10.00;99.90;;;;;;5047731;28;20610;-38
2022/12/25 05:54:03;;;;;;;3.83;2.30;;;10.20;99.90;;;;;;5047816;28;20599;-37
2022/12/25 05:56:29;;;;;;;4.40;2.77;;;10.00;99.90;;;;;;5047879;28;20264;-38
2022/12/25 05:58:54;;;;;;;5.27;2.40;;;9.50;99.90;;;;;;5048473;28;20512;-39
2022/12/25 06:01:24;;;;;;;5.10;2.60;;;10.00;99.90;;;;;;5047970;28;20213;-40
2022/12/25 06:03:49;;;;;;;5.00;2.43;;;10.00;99.90;;;;;;5047402;28;20269;-39
2022/12/25 06:06:15;;;;;;;3.27;2.20;;;10.00;99.90;;;;;;5047993;28;21084;-38
2022/12/25 06:08:41;;;;;;;4.80;2.50;;;10.00;99.90;;;;;;5047566;28;20446;-40
2022/12/25 06:11:08;;;;;;;4.33;2.10;;;10.00;99.90;;;;;;5046819;28;20289;-37
2022/12/25 06:13:34;;;;;;;7.97;2.23;;;10.00;99.90;;;;;;5046862;28;20424;-40
2022/12/25 06:16:08;;;;;;;3.80;2.17;;;10.00;99.90;;;;;;5048201;28;20463;-37
2022/12/25 06:18:40;;;;;;;5.53;2.43;;;10.00;99.90;;;;;;5047665;28;20419;-41
2022/12/25 06:21:11;;;;;;;4.27;2.37;;;10.10;99.90;;;;;;5048458;28;20478;-35
2022/12/25 06:23:37;;;;;;;7.07;2.50;;;10.00;99.90;;;;;;5047276;28;20416;-39
2022/12/25 06:26:09;;;;;;;8.50;2.83;;;10.00;99.90;;;;;;5045398;28;20463;-39
2022/12/25 06:28:35;;;;;;;2.77;2.50;;;10.00;99.90;;;;;;5047938;28;20516;-39
2022/12/25 06:31:06;;;;;;;3.93;2.10;;;10.00;99.90;;;;;;5047664;28;20869;-38
2022/12/25 06:33:32;;;;;;;7.37;2.83;;;10.00;99.90;;;;;;5047188;28;20531;-38
2022/12/25 06:35:57;;;;;;;6.30;2.63;;;10.00;99.90;;;;;;5045998;28;20511;-40
2022/12/25 06:38:23;;;;;;;3.67;2.63;;;10.00;99.90;;;;;;5047820;28;20217;-37
2022/12/25 06:40:49;;;;;;;4.37;2.77;;;10.00;99.90;;;;;;5048055;28;20220;-39
2022/12/25 06:43:14;;;;;;;4.53;2.70;;;10.00;99.90;;;;;;5046969;28;20268;-38
2022/12/25 06:45:40;;;;;;;5.53;2.43;;;10.00;99.90;;;;;;5050192;28;20182;-39
2022/12/25 06:48:06;;;;;;;6.27;3.57;;;9.90;99.90;;;;;;5051066;28;20193;-39
2022/12/25 06:50:31;;;;;;;3.97;2.50;;;9.90;99.90;;;;;;5051997;28;20189;-40
2022/12/25 06:52:57;;;;;;;7.67;3.03;;;10.10;99.90;;;;;;5050814;28;20182;-39
2022/12/25 06:55:23;;;;;;;4.50;2.50;;;9.90;99.90;;;;;;5049881;28;20208;-37
2022/12/25 06:57:48;;;;;;;5.17;2.20;;;9.90;99.90;;;;;;5051386;28;20185;-40
2022/12/25 07:00:14;;;;;;;4.70;2.43;;;9.90;99.90;;;;;;5051014;28;20209;-41
2022/12/25 07:02:47;;;;;;;3.70;2.10;;;10.00;99.90;;;;;;5051165;28;20189;-39
2022/12/25 07:05:12;;;;;;;4.10;2.50;;;10.00;99.90;;;;;;5050269;28;20446;-39
2022/12/25 07:07:38;;;;;;;7.87;2.00;;;9.90;99.90;;;;;;5051221;28;20416;-42
2022/12/25 07:10:04;;;;;;;3.87;2.17;;;10.10;99.90;;;;;;5050739;28;20180;-38
2022/12/25 07:12:30;;;;;;;4.83;2.30;;;9.90;99.90;;;;;;5051054;28;20181;-40
2022/12/25 07:14:55;;;;;;;2.83;2.13;;;9.90;99.90;;;;;;5049939;28;20417;-39
2022/12/25 07:17:22;;;;;;;4.30;2.40;;;9.90;99.90;;;;;;5051024;28;20700;-35
2022/12/25 07:19:48;;;;;;;7.40;2.20;;;9.90;99.90;;;;;;5051126;28;20265;-39
2022/12/25 07:22:15;;;;;;;4.83;2.37;;;9.90;99.90;;;;;;5032759;28;20408;-37
2022/12/25 07:24:41;;;;;;;5.10;2.20;;;9.40;99.90;;;;;;5049316;28;20414;-41
2022/12/25 07:27:07;;;;;;;4.43;2.30;;;9.80;99.90;;;;;;5050505;28;20437;-41
2022/12/25 07:29:33;;;;;;;4.30;2.23;;;9.90;99.90;;;;;;5049453;28;20436;-40
2022/12/25 07:31:58;;;;;;;4.83;2.30;;;9.80;99.90;;;;;;5049178;28;20966;-39
2022/12/25 07:34:24;;;;;;;5.13;2.30;;;10.00;99.90;;;;;;5050347;28;20732;-39
2022/12/25 07:36:50;;;;;;;3.37;2.00;;;9.90;99.90;;;;;;5045506;28;20186;-39
2022/12/25 07:39:16;;;;;;;6.53;2.30;;;9.80;99.90;;;;;;5048758;28;20276;-36
2022/12/25 07:41:42;;;;;;;5.33;2.50;;;9.80;99.90;;;;;;5050514;28;20467;-39
2022/12/25 07:44:08;;;;;;;3.57;2.30;;;9.90;99.90;;;;;;5049867;28;20408;-39
2022/12/25 07:46:34;;;;;;;3.50;1.93;;;9.90;99.90;;;;;;5050797;28;20428;-39
2022/12/25 07:49:00;;;;;;;6.70;3.07;;;9.90;99.90;;;;;;5050217;28;20269;-40
2022/12/25 07:51:28;;;;;;;7.83;3.03;;;9.90;99.90;;;;;;5028360;28;20441;-37
2022/12/25 07:53:55;;;;;;;4.87;2.00;;;9.80;99.90;;;;;;5032582;28;20531;-39
2022/12/25 07:56:20;;;;;;;5.50;2.20;;;9.90;99.90;;;;;;5043392;28;20416;-38
2022/12/25 07:58:47;;;;;;;5.37;2.33;;;9.90;99.90;;;;;;5047160;28;20500;-38
2022/12/25 08:01:21;;;;;;;7.80;2.20;;;10.00;99.90;;;;;;5035639;28;20558;-41
2022/12/25 08:03:52;;;;;;;4.63;2.57;;;10.00;99.90;;;;;;5029713;28;20850;-40
2022/12/25 08:06:19;;;;;;;4.60;1.70;;;10.00;99.90;;;;;;5029741;28;20425;-42
2022/12/25 08:08:44;;;;;;;5.13;2.27;;;10.00;99.90;;;;;;5033162;28;20935;-41
2022/12/25 08:11:10;;;;;;;6.77;2.33;;;10.00;99.90;;;;;;5044711;28;20430;-39
2022/12/25 08:13:36;;;;;;;4.43;2.40;;;10.00;99.90;;;;;;5040166;28;20197;-41
2022/12/25 08:16:04;;;;;;;5.17;2.57;;;10.00;99.90;;;;;;5029992;28;20191;-38
2022/12/25 08:18:30;;;;;;;4.73;2.30;;;10.00;99.90;;;;;;5029519;28;20429;-42
2022/12/25 08:21:00;;;;;;;4.03;2.63;;;10.00;99.90;;;;;;5029798;28;20453;-42
2022/12/25 08:23:26;;;;;;;5.03;2.70;;;10.00;99.90;;;;;;5028729;28;20425;-43
2022/12/25 08:25:52;;;;;;;4.90;2.47;;;10.00;99.90;;;;;;5028520;28;20415;-39
2022/12/25 08:28:17;;;;;;;8.63;3.10;;;10.00;99.90;;;;;;5029526;28;20190;-42
2022/12/25 08:30:43;;;;;;;4.60;2.67;;;10.00;99.90;;;;;;5029618;28;20194;-43
2022/12/25 08:33:09;;;;;;;6.80;2.40;;;10.10;99.90;;;;;;5028809;28;20197;-41
2022/12/25 08:35:35;;;;;;;6.53;2.53;;;10.10;99.90;;;;;;5029303;28;20182;-41
2022/12/25 08:38:01;;;;;;;4.23;2.60;;;10.10;99.90;;;;;;5033912;28;20209;-38
2022/12/25 08:40:27;;;;;;;5.13;2.30;;;10.10;99.90;;;;;;5045207;28;20487;-40
2022/12/25 08:42:55;;;;;;;10.23;3.10;;;10.10;99.90;;;;;;5029423;28;20190;-38
2022/12/25 08:45:21;;;;;;;6.93;2.33;;;10.10;99.90;;;;;;5027828;28;20190;-43
2022/12/25 08:47:47;;;;;;;7.63;3.03;;;10.10;99.90;;;;;;5029172;28;20954;-43
2022/12/25 08:50:13;;;;;;;5.17;2.77;;;10.20;99.90;;;;;;5034433;28;20254;-42
2022/12/25 08:52:38;;;;;;;8.30;3.20;;;10.10;99.90;;;;;;5043303;28;20186;-43
2022/12/25 08:55:04;;;;;;;6.60;2.83;;;10.10;99.90;;;;;;5023946;28;20190;-41
2022/12/25 08:57:30;;;;;;;8.20;2.90;;;10.20;99.90;;;;;;5028870;28;20193;-41
2022/12/25 08:59:56;;;;;;;5.50;3.57;;;10.20;99.90;;;;;;5028947;28;20425;-40
2022/12/25 09:02:21;;;;;;;4.43;3.20;;;10.20;99.90;;;;;;5029049;28;20187;-37
2022/12/25 09:04:47;;;;;;;5.30;2.80;;;10.20;99.90;;;;;;5026620;28;20206;-38
2022/12/25 09:07:13;;;;;;;6.30;3.00;;;10.20;99.90;;;;;;5028444;28;20274;-39
2022/12/25 09:09:38;;;;;;;4.83;3.00;;;10.30;99.90;;;;;;5028052;28;20187;-38
2022/12/25 09:12:04;;;;;;;6.60;3.43;;;10.20;99.90;;;;;;5036329;28;20186;-39
2022/12/25 09:14:30;;;;;;;6.37;3.40;;;10.20;99.90;;;;;;5028210;28;20197;-40
2022/12/25 09:16:56;;;;;;;3.40;2.67;;;10.30;99.90;;;;;;5028970;28;20576;-38
2022/12/25 09:19:21;;;;;;;6.70;3.07;;;10.20;99.90;;;;;;5026911;28;20198;-36
2022/12/25 09:21:47;;;;;;;5.40;3.53;;;10.30;99.90;;;;;;5028466;28;20225;-39
2022/12/25 09:24:13;;;;;;;3.40;2.80;;;10.30;99.90;;;;;;5032855;28;20181;-40
2022/12/25 09:26:39;;;;;;;5.30;3.33;;;10.30;99.90;;;;;;5047666;28;20778;-38
2022/12/25 09:29:05;;;;;;;3.90;3.00;;;10.30;99.90;;;;;;5047163;28;20194;-37
2022/12/25 09:31:31;;;;;;;4.53;3.03;;;10.30;99.90;;;;;;5048620;28;20427;-36
2022/12/25 09:33:57;;;;;;;6.77;3.10;;;10.30;99.90;;;;;;5047837;28;20186;-41
2022/12/25 09:36:24;;;;;;;6.00;3.43;;;10.30;99.90;;;;;;5042289;28;20190;-39
2022/12/25 09:38:50;;;;;;;7.00;3.30;;;10.40;99.90;;;;;;5037982;28;20420;-40
2022/12/25 09:41:37;;;;;;;4.63;3.10;;;10.40;99.90;;;;;;5036530;28;20464;-41
2022/12/25 09:44:09;;;;;;;6.43;3.70;;;10.30;99.90;;;;;;5036631;28;20424;-41
2022/12/25 09:46:48;;;;;;;6.03;3.67;;;10.30;99.90;;;;;;5031874;28;20440;-41
2022/12/25 09:49:34;;;;;;;5.30;3.10;;;10.30;99.90;;;;;;5037414;28;20421;-38
2022/12/25 09:52:23;;;;;;;5.37;3.10;;;10.30;99.90;;;;;;5038353;28;20730;-38
2022/12/25 09:55:29;;;;;;;5.80;3.17;;;10.30;99.90;;;;;;5046561;28;20875;-36
2022/12/25 09:58:00;;;;;;;4.87;3.30;;;10.30;99.90;;;;;;5012781;28;20456;-40
2022/12/25 10:00:41;;;;;;;3.97;3.17;;;10.40;99.90;;;;;;5009886;28;20466;-39
2022/12/25 10:03:19;;;;;;;5.33;3.10;;;10.30;99.90;;;;;;5011724;28;20425;-39
2022/12/25 10:05:53;;;;;;;5.47;3.50;;;10.40;99.90;;;;;;5028618;28;20463;-38
2022/12/25 10:08:28;;;;;;;6.27;3.53;;;10.30;99.90;;;;;;5039472;28;20604;-39
2022/12/25 10:11:25;;;;;;;4.30;3.10;;;10.30;99.90;;;;;;5039643;28;20440;-39
2022/12/25 10:14:17;;;;;;;5.33;3.40;;;10.30;99.90;;;;;;5044638;28;20493;-40
2022/12/25 10:17:15;;;;;;;3.43;3.03;;;10.30;99.90;;;;;;5034595;28;20854;-40
2022/12/25 10:20:11;;;;;;;3.60;2.77;;;10.40;99.90;;;;;;5049792;28;20443;-41
2022/12/25 10:22:41;;;;;;;5.83;2.80;;;10.40;99.90;;;;;;5050077;28;20453;-36
2022/12/25 10:25:16;;;;;;;5.40;3.10;;;10.40;99.90;;;;;;5048550;28;20974;-39
2022/12/25 10:27:43;;;;;;;4.30;2.70;;;10.40;99.90;;;;;;5048717;28;20447;-40
2022/12/25 10:30:27;;;;;;;2.70;2.47;;;10.40;99.90;;;;;;5050388;28;20977;-37
2022/12/25 10:32:56;;;;;;;4.27;3.00;;;10.50;99.90;;;;;;5038366;28;20479;-41
2022/12/25 10:35:25;;;;;;;5.13;3.83;;;10.50;99.90;;;;;;5050122;28;20435;-40
2022/12/25 10:37:59;;;;;;;2.30;2.00;;;10.50;99.90;;;;;;5051467;28;20985;-38
2022/12/25 10:40:43;;;;;;;4.43;2.87;;;10.50;99.90;;;;;;5050542;28;20567;-42
2022/12/25 10:43:22;;;;;;;5.93;2.57;;;10.50;99.90;;;;;;5049746;28;20448;-37
2022/12/25 10:45:48;;;;;;;6.17;2.90;;;10.50;99.90;;;;;;5037971;28;20436;-41
2022/12/25 10:48:24;;;;;;;6.50;2.67;;;10.50;99.90;;;;;;5050465;28;20509;-40
2022/12/25 10:50:50;;;;;;;3.77;2.90;;;10.60;99.90;;;;;;5039492;28;20443;-41
2022/12/25 10:53:20;;;;;;;2.37;2.17;;;10.60;99.90;;;;;;5050115;28;20558;-41
2022/12/25 10:56:00;;;;;;;4.40;2.30;;;10.60;99.90;;;;;;5049666;28;20444;-39
2022/12/25 10:58:26;;;;;;;5.00;2.90;;;10.60;99.90;;;;;;5047674;28;20483;-41
2022/12/25 11:01:18;;;;;;;2.83;2.53;;;10.60;99.90;;;;;;5045521;28;20473;-38
2022/12/25 11:03:46;;;;;;;4.17;2.60;;;10.70;99.90;;;;;;5038674;28;20441;-37
2022/12/25 11:06:23;;;;;;;2.20;2.00;;;10.70;99.90;;;;;;5048908;28;20444;-40
2022/12/25 11:08:57;;;;;;;3.43;2.50;;;10.70;99.90;;;;;;5049511;28;20809;-40
2022/12/25 11:11:24;;;;;;;2.60;1.70;;;10.70;99.90;;;;;;5040844;28;20805;-36
2022/12/25 11:13:53;;;;;;;1.80;1.70;;;10.80;99.90;;;;;;5047563;28;20447;-42
2022/12/25 11:16:39;;;;;;;1.90;1.70;;;10.80;99.90;;;;;;5041436;28;20455;-40
2022/12/25 11:19:23;;;;;;;3.60;2.00;;;10.80;99.90;;;;;;5039900;28;20540;-41
2022/12/25 11:21:52;;;;;;;2.50;1.87;;;10.80;99.90;;;;;;5045914;28;20753;-42
2022/12/25 11:24:20;;;;;;;2.30;2.10;;;10.90;99.90;;;;;;5043184;28;20444;-40
2022/12/25 11:26:55;;;;;;;1.93;1.53;;;10.80;99.90;;;;;;5046534;28;20739;-39
2022/12/25 11:29:42;;;;;;;1.93;1.40;;;10.80;99.90;;;;;;5042750;28;20475;-39
2022/12/25 11:32:38;;;;;;;1.67;1.57;;;10.90;99.90;;;;;;5043495;28;20469;-38
2022/12/25 11:35:11;;;;;;;3.10;1.67;;;10.80;99.90;;;;;;5041506;28;20444;-39
2022/12/25 11:37:40;;;;;;;2.80;2.20;;;10.90;99.90;;;;;;5044909;28;20455;-38
2022/12/25 11:40:13;;;;;;;2.47;2.27;;;10.80;99.90;;;;;;5049722;28;20436;-40
2022/12/25 11:42:44;;;;;;;2.30;1.83;;;10.90;99.90;;;;;;5047470;28;20527;-39
2022/12/25 11:45:23;;;;;;;1.80;1.60;;;10.90;99.90;;;;;;5038558;28;20518;-38
2022/12/25 11:48:01;;;;;;;2.23;1.87;;;10.90;99.90;;;;;;5043633;28;20459;-38
2022/12/25 11:50:45;;;;;;;2.13;1.60;;;10.90;99.90;;;;;;5045792;28;21144;-40
2022/12/25 11:53:24;;;;;;;3.00;1.87;;;10.90;99.90;;;;;;5046614;28;20468;-40
2022/12/25 11:55:54;;;;;;;2.50;1.70;;;10.80;99.90;;;;;;5048683;28;20524;-42
2022/12/25 11:58:31;;;;;;;3.60;2.07;;;10.80;99.90;;;;;;5042315;28;20464;-42
2022/12/25 12:01:01;;;;;;;4.37;2.20;;;10.80;99.90;;;;;;5046459;28;20566;-42
2022/12/25 12:03:34;;;;;;;2.83;2.37;;;10.80;99.90;;;;;;5040144;28;20441;-42
2022/12/25 12:06:14;;;;;;;2.83;2.10;;;10.80;99.90;;;;;;5036731;28;20449;-43
2022/12/25 12:08:40;;;;;;;5.40;2.23;;;10.90;99.90;;;;;;5045944;28;20432;-43
2022/12/25 12:11:32;;;;;;;1.93;1.70;;;10.90;99.90;;;;;;5047066;28;20463;-41
2022/12/25 12:14:20;;;;;;;2.27;2.07;;;10.90;99.90;;;;;;5047860;28;20460;-42
2022/12/25 12:16:45;;;;;;;2.60;2.07;;;10.90;99.90;;;;;;5032843;28;20453;-43
2022/12/25 12:19:40;;;;;;;2.40;2.20;;;10.80;99.90;;;;;;5043270;28;20436;-42
2022/12/25 12:22:14;;;;;;;2.47;2.27;;;10.90;99.90;;;;;;5045677;28;20649;-41
2022/12/25 12:24:42;;;;;;;2.10;1.90;;;10.80;99.90;;;;;;5042849;28;20474;-43
2022/12/25 12:27:23;;;;;;;2.30;2.10;;;10.80;99.90;;;;;;5046622;28;20456;-41
2022/12/25 12:29:55;;;;;;;3.00;2.40;;;10.90;99.90;;;;;;5049083;28;20482;-42
2022/12/25 12:32:26;;;;;;;2.47;1.77;;;10.80;99.90;;;;;;5046511;28;20437;-43
2022/12/25 12:34:53;;;;;;;1.80;1.70;;;10.80;99.90;;;;;;5045304;28;21154;-42
2022/12/25 12:37:30;;;;;;;1.80;1.50;;;10.90;99.90;;;;;;5042347;28;20452;-42
2022/12/25 12:39:56;;;;;;;2.03;1.80;;;10.90;99.90;;;;;;5046995;28;20549;-39
2022/12/25 12:42:30;;;;;;;2.03;1.80;;;10.90;99.90;;;;;;5040925;28;20485;-42
2022/12/25 12:44:57;;;;;;;2.27;2.07;;;10.90;99.90;;;;;;5043011;28;20526;-41
2022/12/25 12:47:27;;;;;;;1.63;1.50;;;10.90;99.90;;;;;;5044332;28;20550;-42
2022/12/25 12:49:57;;;;;;;1.97;1.83;;;10.90;99.90;;;;;;5043120;28;20902;-42
2022/12/25 12:52:35;;;;;;;2.83;2.40;;;10.80;99.90;;;;;;5046859;28;20455;-42
2022/12/25 12:55:05;;;;;;;1.97;1.80;;;10.90;99.90;;;;;;5045144;28;20882;-43
2022/12/25 12:57:38;;;;;;;2.20;1.90;;;10.90;99.90;;;;;;5045280;28;20445;-40
2022/12/25 13:00:08;;;;;;;2.70;2.10;;;11.00;99.90;;;;;;5043286;28;20540;-39
2022/12/25 13:02:55;;;;;;;3.03;1.80;;;11.00;99.90;;;;;;5038905;28;20498;-41
2022/12/25 13:05:41;;;;;;;3.10;2.13;;;11.00;99.90;;;;;;5046802;28;20501;-43
2022/12/25 13:08:25;;;;;;;3.17;2.10;;;11.00;99.90;;;;;;5043972;28;20441;-42
2022/12/25 13:11:15;;;;;;;2.70;1.90;;;11.10;99.90;;;;;;5045635;28;20439;-40
2022/12/25 13:13:43;;;;;;;2.90;1.97;;;11.10;99.90;;;;;;5042161;28;20444;-43
2022/12/25 13:16:22;;;;;;;3.60;2.30;;;11.10;99.90;;;;;;5043598;28;20528;-41
2022/12/25 13:18:51;;;;;;;2.33;2.13;;;11.10;99.90;;;;;;5045899;28;20463;-40
2022/12/25 13:21:25;;;;;;;4.30;2.90;;;11.10;99.90;;;;;;5043208;28;20474;-43
2022/12/25 13:24:07;;;;;;;3.70;2.50;;;11.10;99.90;;;;;;5044368;28;20440;-41
2022/12/25 13:26:34;;;;;;;3.97;2.93;;;11.10;99.90;;;;;;5042368;28;20722;-41
2022/12/25 13:28:59;;;;;;;3.83;3.13;;;11.10;99.90;;;;;;5043457;28;20926;-42
2022/12/25 13:31:28;;;;;;;3.60;3.20;;;11.10;99.90;;;;;;5045607;28;20492;-43
2022/12/25 13:34:29;;;;;;;3.73;3.07;;;11.10;99.90;;;;;;5044384;28;20202;-42
2022/12/25 13:36:56;;;;;;;4.23;3.53;;;11.10;99.90;;;;;;5041145;28;20493;-41
2022/12/25 13:39:23;;;;;;;4.70;3.50;;;11.10;99.90;;;;;;5043734;28;20431;-40
2022/12/25 13:42:04;;;;;;;5.13;3.80;;;11.10;99.90;;;;;;5034474;28;20485;-42
2022/12/25 13:44:52;;;;;;;3.70;3.40;;;11.10;99.90;;;;;;5039456;28;20489;-44
2022/12/25 13:47:24;;;;;;;4.30;3.90;;;11.10;99.90;;;;;;5043528;28;20452;-40
2022/12/25 13:49:54;;;;;;;4.70;4.13;;;11.10;99.90;;;;;;5031043;28;20970;-41
2022/12/25 13:52:26;;;;;;;4.30;3.90;;;11.10;99.90;;;;;;5039058;28;20457;-42
2022/12/25 13:55:00;;;;;;;4.60;3.80;;;11.10;99.90;;;;;;5040134;28;20452;-43
2022/12/25 13:57:30;;;;;;;4.70;4.30;;;11.10;99.90;;;;;;5041303;28;20469;-43
2022/12/25 13:59:56;;;;;;;5.10;4.23;;;11.10;99.90;;;;;;5038515;28;20535;-42
2022/12/25 14:02:29;;;;;;;5.90;5.30;;;11.10;99.90;;;;;;5040220;28;20824;-39
2022/12/25 14:04:54;;;;;;;4.83;4.03;;;11.10;99.90;;;;;;5042433;28;20509;-42
2022/12/25 14:07:22;;;;;;;7.07;4.90;;;11.10;99.90;;;;;;5042528;28;20499;-39
2022/12/25 14:09:53;;;;;;;6.50;4.80;;;11.10;99.90;;;;;;5038772;28;20514;-42
2022/12/25 14:12:20;;;;;;;7.23;5.90;;;11.10;99.90;;;;;;5042456;28;20460;-39
2022/12/25 14:14:48;;;;;;;5.40;4.70;;;11.10;99.90;;;;;;5039158;28;20835;-43
2022/12/25 14:17:14;;;;;;;7.00;5.40;;;11.10;99.90;;;;;;5036575;28;20591;-39
2022/12/25 14:19:39;;;;;;;4.67;4.13;;;11.10;99.90;;;;;;5037673;28;20543;-42
2022/12/25 14:22:20;;;;;;;5.20;4.63;;;11.10;99.90;;;;;;5038704;28;20249;-46
2022/12/25 14:24:46;;;;;;;6.33;5.53;;;11.20;99.90;;;;;;5038219;28;20664;-41
2022/12/25 14:27:18;;;;;;;10.73;5.13;;;11.20;99.90;;;;;;5044715;28;20460;-43
2022/12/25 14:29:47;;;;;;;7.03;4.87;;;11.20;99.90;;;;;;5039400;28;20437;-40
2022/12/25 14:32:24;;;;;;;7.30;5.27;;;11.20;99.90;;;;;;5034617;28;20521;-42
2022/12/25 14:34:54;;;;;;;6.40;4.90;;;11.20;99.90;;;;;;5031189;28;20448;-40
2022/12/25 14:37:24;;;;;;;7.80;5.80;;;11.20;99.90;;;;;;5032938;28;20459;-42
2022/12/25 14:40:05;;;;;;;7.10;5.97;;;11.20;99.90;;;;;;5032557;28;20449;-39
2022/12/25 14:42:36;;;;;;;6.73;5.30;;;11.30;99.90;;;;;;5029997;28;20556;-42
2022/12/25 14:45:06;;;;;;;6.10;5.40;;;11.30;99.90;;;;;;5043051;28;20436;-40
2022/12/25 14:47:49;;;;;;;6.43;5.57;;;11.20;99.90;;;;;;5030811;28;20823;-43